Startpagina
METAR-TAF:

METAR-TAF

Vliegvelden :

Aeropuerto Internacional de Maiquetía Simón Bolívar

Caracas, Venezuela

breedte: 10-36N, lengte: 066-59W, hoogte: 43 m

Actueel weer

Dit bericht is 16 minuten geleden gemaakt, om 13:00 UTC
Wind 3 kt uit het westnoordwesten
Temperatuur 27°C
Vochtigheid 84%
Druk 1011 hPa
Zicht 10 km of meer
Gebroken wolken op 1600 ft

METAR: SVMI 211300Z 29003KT 9999 BKN016 27/24 Q1011

Tijdstip: 09:16 (13:16 UTC)

Verwachting

Dit bericht is 3 uur en het 16 minuten geleden gemaakt, om 10:00 UTC
Verwachting geldig van 21 om 12 UTC tot 22 om 12 UTC
Wind 5 kt uit het oosten
Zicht 10 km of meer
Weinig wolken op 1600 ft
Verspreide wolken op 10000 ft
Tijdelijke
van 21 om 13 UTC tot 21 om 16 UTC
Wind 6 kt uit het oostnoordoosten
Verspreide wolken op 1600 ft

TAF: SVMI 211000Z 2112/2212 09005KT 9999 FEW016 SCT100 TX32/16Z TN24/10Z TEMPO 2113/2116 07006KT SCT016

Waarnemingen en weersverwachtingen van meer dan 4000 vliegvelden (METAR en TAF).

De beschikbare stations zijn de gele en rode punten op de kaart.

Ga met uw muis naar het station om de naam te zien.

Klik dan om waarnemingen en weersverwachtingen te zien.

kaart wijzigen: klik op de groene knoppen met een zwart kruis om in te zoomen, op de groene knop met een streepje om uit te zoomen of op de groene pijlen voor aangrenzende kaarten.


METAR-TAF: